Time;durP1;ratioP1;P1;durP2;ratioP2;P2;SDS_P1;SDS_P2;PMS_P1;PMS_P2;Temp;Humidity;BMP_temperature;BMP_pressure;BME280_temperature;BME280_humidity;BME280_pressure;Samples;Min_cycle;Max_cycle;Signal;HPM_P1;HPM_P2
2021/08/20 00:02:02;;;;;;;;;;;;;;;19.66;64.20;101166.14;1849008;77;20205;-73
2021/08/20 00:04:34;;;;;;;;;;;;;;;19.62;63.97;101158.63;1851422;77;20609;-72
2021/08/20 00:07:07;;;;;;;;;;;;;;;19.54;63.96;101162.98;1849332;77;20182;-71
2021/08/20 00:09:39;;;;;;;;;;;;;;;19.45;64.01;101158.36;1849284;77;20534;-73
2021/08/20 00:12:11;;;;;;;;;;;;;;;19.34;64.12;101162.48;1849105;77;20186;-73
2021/08/20 00:14:44;;;;;;;;;;;;;;;19.31;64.23;101158.30;1849249;77;20622;-73
2021/08/20 00:17:18;;;;;;;;;;;;;;;19.28;64.24;101157.52;1849058;77;20257;-71
2021/08/20 00:19:50;;;;;;;;;;;;;;;19.21;64.26;101167.49;1849244;77;20228;-72
2021/08/20 00:22:22;;;;;;;;;;;;;;;19.16;64.26;101166.98;1848894;77;20185;-73
2021/08/20 00:24:57;;;;;;;;;;;;;;;19.15;64.18;101169.50;1848812;77;20347;-67
2021/08/20 00:27:29;;;;;;;;;;;;;;;19.15;64.23;101164.45;1849202;77;20253;-71
2021/08/20 00:30:07;;;;;;;;;;;;;;;19.16;64.32;101163.31;1849290;77;20531;-72
2021/08/20 00:32:39;;;;;;;;;;;;;;;19.16;64.24;101164.72;1849300;77;20253;-72
2021/08/20 00:35:12;;;;;;;;;;;;;;;19.17;64.24;101160.20;1849178;77;20193;-70
2021/08/20 00:37:43;;;;;;;;;;;;;;;19.20;64.04;101165.79;1849038;77;20170;-73
2021/08/20 00:40:15;;;;;;;;;;;;;;;19.21;64.06;101166.90;1848781;77;20332;-72
2021/08/20 00:42:49;;;;;;;;;;;;;;;19.19;64.01;101164.12;1849299;77;20613;-71
2021/08/20 00:45:21;;;;;;;;;;;;;;;19.20;64.03;101161.56;1849296;77;20256;-70
2021/08/20 00:47:53;;;;;;;;;;;;;;;19.22;64.06;101165.78;1849282;77;20177;-70
2021/08/20 00:50:25;;;;;;;;;;;;;;;19.25;64.08;101162.89;1849375;77;20181;-70
2021/08/20 00:52:59;;;;;;;;;;;;;;;19.27;63.98;101167.09;1849069;77;20248;-71
2021/08/20 00:55:31;;;;;;;;;;;;;;;19.25;63.80;101172.75;1849214;77;20257;-69
2021/08/20 00:58:08;;;;;;;;;;;;;;;19.25;63.71;101169.37;1849320;77;20532;-69
2021/08/20 01:00:40;;;;;;;;;;;;;;;19.26;63.71;101164.59;1849263;76;20316;-70
2021/08/20 01:03:13;;;;;;;;;;;;;;;19.25;63.62;101163.75;1849983;77;20257;-70
2021/08/20 01:05:46;;;;;;;;;;;;;;;19.24;63.51;101164.05;1850128;77;20308;-71
2021/08/20 01:08:23;;;;;;;;;;;;;;;19.30;63.42;101160.00;1851108;77;20193;-68
2021/08/20 01:10:56;;;;;;;;;;;;;;;19.35;63.29;101158.52;1849384;77;20260;-72
2021/08/20 01:13:38;;;;;;;;;;;;;;;19.38;63.18;101163.55;1849015;77;20224;-67
2021/08/20 01:16:10;;;;;;;;;;;;;;;19.39;63.12;101163.81;1849280;77;20213;-70
2021/08/20 01:18:42;;;;;;;;;;;;;;;19.38;62.96;101157.92;1849121;77;20550;-73
2021/08/20 01:21:20;;;;;;;;;;;;;;;19.35;62.92;101159.92;1849097;77;20197;-71
2021/08/20 01:24:14;;;;;;;;;;;;;;;19.31;62.98;101158.30;1849157;77;20216;-72
2021/08/20 01:26:47;;;;;;;;;;;;;;;19.29;62.98;101157.78;1846550;75;20171;-69
2021/08/20 01:29:19;;;;;;;;;;;;;;;19.24;63.03;101149.41;1843684;78;20218;-68
2021/08/20 01:31:52;;;;;;;;;;;;;;;19.27;63.13;101155.00;1843813;78;20174;-68
2021/08/20 01:34:25;;;;;;;;;;;;;;;19.25;63.19;101155.86;1842018;78;20222;-70
2021/08/20 01:36:58;;;;;;;;;;;;;;;19.24;63.24;101154.19;1843906;78;20223;-69
2021/08/20 01:39:30;;;;;;;;;;;;;;;19.26;63.26;101157.56;1844153;78;20254;-69
2021/08/20 01:42:01;;;;;;;;;;;;;;;19.30;63.25;101150.14;1843903;78;20250;-70
2021/08/20 01:44:33;;;;;;;;;;;;;;;19.33;63.13;101152.37;1844018;77;20255;-69
2021/08/20 01:47:05;;;;;;;;;;;;;;;19.30;63.06;101151.55;1843255;77;20211;-68
2021/08/20 01:49:41;;;;;;;;;;;;;;;19.27;63.12;101151.59;1840232;78;20179;-69
2021/08/20 01:52:14;;;;;;;;;;;;;;;19.29;63.07;101148.48;1842059;78;20183;-68
2021/08/20 01:54:46;;;;;;;;;;;;;;;19.34;63.04;101149.80;1842140;78;20243;-70
2021/08/20 01:57:20;;;;;;;;;;;;;;;19.34;62.86;101154.03;1842099;78;20262;-68
2021/08/20 01:59:54;;;;;;;;;;;;;;;19.32;62.88;101151.52;1842080;78;20254;-67
2021/08/20 02:02:38;;;;;;;;;;;;;;;19.26;62.96;101149.11;1827360;77;20260;-72
2021/08/20 02:05:12;;;;;;;;;;;;;;;19.21;63.23;101150.59;1834173;78;20607;-70
2021/08/20 02:07:45;;;;;;;;;;;;;;;19.13;63.30;101148.45;1819030;78;20234;-72
2021/08/20 02:10:19;;;;;;;;;;;;;;;19.04;63.55;101144.63;1845762;78;20286;-72
2021/08/20 02:12:52;;;;;;;;;;;;;;;18.98;63.71;101150.92;1840497;78;20218;-71
2021/08/20 02:15:26;;;;;;;;;;;;;;;18.96;63.87;101146.74;1821594;78;20179;-71
2021/08/20 02:17:59;;;;;;;;;;;;;;;18.97;63.92;101142.78;1818436;78;20175;-72
2021/08/20 02:20:31;;;;;;;;;;;;;;;18.95;64.01;101144.48;1845468;76;20266;-71
2021/08/20 02:23:04;;;;;;;;;;;;;;;18.94;64.07;101153.22;1840836;76;20179;-71
2021/08/20 02:25:36;;;;;;;;;;;;;;;18.93;64.09;101152.96;1864140;76;20244;-70
2021/08/20 02:28:07;;;;;;;;;;;;;;;18.97;64.04;101152.05;1847318;76;20315;-71
2021/08/20 02:30:39;;;;;;;;;;;;;;;18.99;63.92;101147.52;1845597;78;20245;-70
2021/08/20 02:33:12;;;;;;;;;;;;;;;18.99;63.80;101153.16;1844017;77;20333;-71
2021/08/20 02:35:44;;;;;;;;;;;;;;;18.98;63.79;101155.70;1843836;78;21566;-70
2021/08/20 02:38:16;;;;;;;;;;;;;;;18.98;63.80;101156.56;1843817;78;20179;-69
2021/08/20 02:40:47;;;;;;;;;;;;;;;18.99;63.69;101158.23;1843962;76;20251;-70
2021/08/20 02:43:20;;;;;;;;;;;;;;;18.96;63.79;101150.96;1843837;77;20254;-70
2021/08/20 02:45:53;;;;;;;;;;;;;;;18.92;63.88;101161.14;1843864;76;20651;-69
2021/08/20 02:48:26;;;;;;;;;;;;;;;18.89;63.90;101168.81;1845571;78;20248;-70
2021/08/20 02:50:59;;;;;;;;;;;;;;;18.87;64.01;101168.25;1812666;79;20182;-70
2021/08/20 02:53:32;;;;;;;;;;;;;;;18.82;64.10;101171.98;1812450;79;20591;-70
2021/08/20 02:56:04;;;;;;;;;;;;;;;18.78;64.27;101168.68;1836193;76;20251;-70
2021/08/20 02:58:52;;;;;;;;;;;;;;;18.77;64.43;101174.05;1836333;78;20648;-70
2021/08/20 03:01:24;;;;;;;;;;;;;;;18.78;64.52;101171.50;1842620;77;20231;-70
2021/08/20 03:03:56;;;;;;;;;;;;;;;18.75;64.59;101167.87;1809411;79;20259;-70
2021/08/20 03:06:29;;;;;;;;;;;;;;;18.78;64.66;101170.91;1807910;77;20195;-70
2021/08/20 03:09:02;;;;;;;;;;;;;;;18.83;64.54;101175.06;1802806;79;20188;-71
2021/08/20 03:11:35;;;;;;;;;;;;;;;18.82;64.65;101171.14;1774967;79;20203;-71
2021/08/20 03:14:08;;;;;;;;;;;;;;;18.81;64.70;101169.47;1820475;79;20187;-72
2021/08/20 03:16:41;;;;;;;;;;;;;;;18.81;64.71;101165.25;1820449;79;20249;-71
2021/08/20 03:19:14;;;;;;;;;;;;;;;18.82;64.72;101167.77;1803267;79;20196;-71
2021/08/20 03:21:45;;;;;;;;;;;;;;;18.85;64.72;101167.73;1803274;79;20185;-71
2021/08/20 03:24:18;;;;;;;;;;;;;;;18.85;64.73;101171.95;1803235;78;20613;-72
2021/08/20 03:26:51;;;;;;;;;;;;;;;18.81;64.87;101170.31;1802938;79;20188;-70
2021/08/20 03:29:23;;;;;;;;;;;;;;;18.80;64.98;101179.91;1803344;79;20602;-72
2021/08/20 03:31:56;;;;;;;;;;;;;;;18.82;65.09;101178.17;1817408;78;20580;-71
2021/08/20 03:34:29;;;;;;;;;;;;;;;18.81;65.30;101181.58;1803388;78;20224;-72
2021/08/20 03:37:02;;;;;;;;;;;;;;;18.81;65.58;101181.58;1820527;77;20191;-72
2021/08/20 03:39:35;;;;;;;;;;;;;;;18.79;65.68;101189.50;1801303;79;20260;-71
2021/08/20 03:42:07;;;;;;;;;;;;;;;18.78;65.90;101187.80;1802855;79;20620;-70
2021/08/20 03:44:44;;;;;;;;;;;;;;;18.79;66.01;101181.61;1800104;79;20265;-70
2021/08/20 03:47:15;;;;;;;;;;;;;;;18.81;65.90;101182.13;1788455;80;20297;-70
2021/08/20 03:49:47;;;;;;;;;;;;;;;18.82;65.78;101182.39;1792506;79;20371;-72
2021/08/20 03:52:20;;;;;;;;;;;;;;;18.85;65.76;101187.43;1788400;80;20234;-70
2021/08/20 03:54:53;;;;;;;;;;;;;;;18.93;65.62;101189.55;1788564;80;20329;-70
2021/08/20 03:57:24;;;;;;;;;;;;;;;19.03;65.73;101197.86;1788320;79;20365;-70
2021/08/20 03:59:58;;;;;;;;;;;;;;;19.07;65.67;101192.72;1788494;80;20186;-71
2021/08/20 04:02:32;;;;;;;;;;;;;;;19.12;65.49;101198.84;1809099;77;20195;-71
2021/08/20 04:05:05;;;;;;;;;;;;;;;19.14;65.20;101195.98;1788722;80;20261;-71
2021/08/20 04:07:48;;;;;;;;;;;;;;;19.17;65.25;101198.77;1801754;79;20282;-71
2021/08/20 04:10:23;;;;;;;;;;;;;;;19.19;65.03;101203.55;1777300;79;20219;-72
2021/08/20 04:13:03;;;;;;;;;;;;;;;19.19;65.23;101198.73;1793792;78;20294;-71
2021/08/20 04:15:53;;;;;;;;;;;;;;;19.21;65.24;101192.83;1808586;79;20199;-71
2021/08/20 04:18:42;;;;;;;;;;;;;;;19.26;64.79;101199.80;1803134;79;20252;-70
2021/08/20 04:21:15;;;;;;;;;;;;;;;19.31;64.63;101206.17;1774301;79;20198;-71
2021/08/20 04:23:49;;;;;;;;;;;;;;;19.31;64.35;101202.52;1772844;79;20258;-77
2021/08/20 04:26:20;;;;;;;;;;;;;;;19.35;64.13;101216.26;1810654;79;20252;-71
2021/08/20 04:28:56;;;;;;;;;;;;;;;19.43;64.33;101214.15;1794119;78;20253;-72
2021/08/20 04:31:30;;;;;;;;;;;;;;;19.52;64.27;101213.73;1820978;78;20294;-72
2021/08/20 04:34:06;;;;;;;;;;;;;;;19.65;64.12;101211.53;1820018;79;20256;-73
2021/08/20 04:36:43;;;;;;;;;;;;;;;19.78;63.65;101210.17;1777212;79;20548;-72
2021/08/20 04:39:20;;;;;;;;;;;;;;;19.95;63.37;101211.84;1771566;81;20552;-72
2021/08/20 04:42:02;;;;;;;;;;;;;;;20.10;62.80;101203.67;1715091;81;20170;-69
2021/08/20 04:44:41;;;;;;;;;;;;;;;20.26;61.83;101207.33;1818714;79;20247;-71
2021/08/20 04:47:34;;;;;;;;;;;;;;;20.47;61.09;101208.58;1746592;82;20251;-69
2021/08/20 04:50:10;;;;;;;;;;;;;;;20.65;60.33;101208.19;1745713;82;20287;-73
2021/08/20 04:53:00;;;;;;;;;;;;;;;20.79;59.62;101210.45;1778279;79;20248;-71
2021/08/20 04:55:36;;;;;;;;;;;;;;;20.90;59.43;101201.46;1824575;78;20256;-72
2021/08/20 04:58:08;;;;;;;;;;;;;;;21.07;58.81;101205.02;1820545;79;20291;-75
2021/08/20 05:00:43;;;;;;;;;;;;;;;21.31;58.44;101195.70;1820565;79;20259;-72
2021/08/20 05:03:16;;;;;;;;;;;;;;;21.55;57.58;101199.05;1814535;77;20188;-72
2021/08/20 05:05:49;;;;;;;;;;;;;;;21.74;57.09;101196.33;1777716;80;20260;-72
2021/08/20 05:08:21;;;;;;;;;;;;;;;21.87;56.35;101192.58;1798181;80;20256;-73
2021/08/20 05:10:53;;;;;;;;;;;;;;;22.03;56.55;101184.52;1796180;79;20252;-74
2021/08/20 05:13:25;;;;;;;;;;;;;;;22.34;56.08;101178.25;1797968;80;20184;-71
2021/08/20 05:15:58;;;;;;;;;;;;;;;22.73;55.61;101179.09;1797933;78;20197;-75
2021/08/20 05:18:29;;;;;;;;;;;;;;;23.25;55.09;101192.78;1807868;75;20243;-73
2021/08/20 05:21:01;;;;;;;;;;;;;;;23.83;53.62;101183.98;1862582;76;20281;-72
2021/08/20 05:23:32;;;;;;;;;;;;;;;24.40;52.65;101183.09;1852477;77;20278;-73
2021/08/20 05:26:04;;;;;;;;;;;;;;;24.93;51.67;101181.91;1855891;76;20312;-74
2021/08/20 05:28:36;;;;;;;;;;;;;;;25.39;49.33;101191.12;1847628;76;20296;-71
2021/08/20 05:31:07;;;;;;;;;;;;;;;25.72;48.31;101196.25;1850092;76;20240;-70
2021/08/20 05:33:40;;;;;;;;;;;;;;;26.01;47.03;101198.17;1844541;76;20583;-71
2021/08/20 05:36:12;;;;;;;;;;;;;;;26.15;46.41;101198.09;1850381;77;20282;-72
2021/08/20 05:38:43;;;;;;;;;;;;;;;26.30;46.07;101193.73;1854641;76;20484;-69
2021/08/20 05:41:15;;;;;;;;;;;;;;;26.44;46.29;101190.80;1851880;77;20183;-70
2021/08/20 05:43:46;;;;;;;;;;;;;;;26.61;46.34;101195.46;1856499;76;20544;-72
2021/08/20 05:46:20;;;;;;;;;;;;;;;26.73;44.59;101189.19;1880085;76;20190;-71
2021/08/20 05:48:52;;;;;;;;;;;;;;;26.83;45.23;101191.53;1852159;77;20171;-74
2021/08/20 05:51:26;;;;;;;;;;;;;;;26.93;43.82;101197.35;1867450;76;20571;-72
2021/08/20 05:53:58;;;;;;;;;;;;;;;27.00;45.20;101197.00;1852433;76;20303;-71
2021/08/20 05:56:31;;;;;;;;;;;;;;;27.24;44.51;101197.61;1850877;76;20628;-73
2021/08/20 05:59:02;;;;;;;;;;;;;;;27.34;43.15;101193.03;1852279;77;20182;-70
2021/08/20 06:01:35;;;;;;;;;;;;;;;27.42;42.78;101196.95;1852438;76;20302;-72
2021/08/20 06:04:08;;;;;;;;;;;;;;;27.42;42.79;101192.67;1852510;76;20250;-74
2021/08/20 06:06:42;;;;;;;;;;;;;;;27.48;43.12;101194.92;1852665;77;20190;-71
2021/08/20 06:09:15;;;;;;;;;;;;;;;27.60;42.57;101188.33;1856055;76;20187;-74
2021/08/20 06:11:47;;;;;;;;;;;;;;;27.76;42.70;101187.18;1875613;76;20180;-75
2021/08/20 06:14:19;;;;;;;;;;;;;;;27.89;41.70;101180.86;1859956;76;20536;-73
2021/08/20 06:16:57;;;;;;;;;;;;;;;27.94;41.67;101187.75;1852008;77;20225;-75
2021/08/20 06:19:29;;;;;;;;;;;;;;;27.98;41.92;101180.93;1860583;76;20211;-73
2021/08/20 06:22:01;;;;;;;;;;;;;;;28.08;41.48;101184.69;1842637;76;20175;-72
2021/08/20 06:24:32;;;;;;;;;;;;;;;28.28;40.72;101186.47;1838246;78;20258;-73
2021/08/20 06:27:05;;;;;;;;;;;;;;;28.44;39.64;101170.16;1837418;78;20524;-74
2021/08/20 06:29:36;;;;;;;;;;;;;;;28.52;40.47;101177.75;1837331;78;20273;-74
2021/08/20 06:32:08;;;;;;;;;;;;;;;28.62;40.64;101171.45;1837674;78;20242;-75
2021/08/20 06:34:41;;;;;;;;;;;;;;;28.73;40.13;101166.02;1837547;78;20333;-75
2021/08/20 06:37:13;;;;;;;;;;;;;;;28.79;39.64;101165.35;1837432;78;20180;-75
2021/08/20 06:39:45;;;;;;;;;;;;;;;28.85;40.18;101168.16;1837593;78;20183;-74
2021/08/20 06:42:16;;;;;;;;;;;;;;;28.93;40.13;101171.41;1837606;78;20175;-73
2021/08/20 06:44:49;;;;;;;;;;;;;;;29.06;39.45;101175.87;1837527;78;20218;-76
2021/08/20 06:47:20;;;;;;;;;;;;;;;29.14;39.19;101169.69;1837853;78;20577;-75
2021/08/20 06:49:52;;;;;;;;;;;;;;;29.18;38.78;101164.30;1837753;78;20262;-74
2021/08/20 06:52:23;;;;;;;;;;;;;;;29.20;39.37;101160.45;1838685;76;20280;-73
2021/08/20 06:54:57;;;;;;;;;;;;;;;29.27;39.39;101164.05;1843967;78;20310;-71
2021/08/20 06:57:29;;;;;;;;;;;;;;;29.40;38.68;101158.45;1843857;76;20282;-73
2021/08/20 07:00:01;;;;;;;;;;;;;;;29.54;38.88;101164.50;1844035;78;20607;-72
2021/08/20 07:02:34;;;;;;;;;;;;;;;29.56;38.36;101162.08;1843822;78;20576;-76
2021/08/20 07:05:07;;;;;;;;;;;;;;;29.63;37.71;101158.77;1837634;76;20254;-71
2021/08/20 07:07:39;;;;;;;;;;;;;;;29.61;36.92;101167.52;1844064;78;20600;-73
2021/08/20 07:10:15;;;;;;;;;;;;;;;29.59;36.96;101165.64;1843953;78;20341;-72
2021/08/20 07:12:47;;;;;;;;;;;;;;;29.54;36.51;101162.45;1843090;76;20216;-71
2021/08/20 07:15:19;;;;;;;;;;;;;;;29.46;36.28;101172.07;1821751;78;20289;-69
2021/08/20 07:17:51;;;;;;;;;;;;;;;29.23;36.67;101163.16;1821983;77;20316;-69
2021/08/20 07:20:22;;;;;;;;;;;;;;;28.95;36.80;101164.77;1821045;78;20250;-69
2021/08/20 07:22:54;;;;;;;;;;;;;;;28.56;37.07;101167.83;1818947;76;20667;-70
2021/08/20 07:25:27;;;;;;;;;;;;;;;28.21;38.46;101169.13;1820140;77;20611;-71
2021/08/20 07:27:59;;;;;;;;;;;;;;;28.05;38.76;101171.12;1832023;76;20443;-71
2021/08/20 07:30:32;;;;;;;;;;;;;;;27.83;39.26;101159.47;1835341;76;20552;-71
2021/08/20 07:33:04;;;;;;;;;;;;;;;27.63;39.62;101161.31;1825276;76;20171;-72
2021/08/20 07:35:38;;;;;;;;;;;;;;;27.43;40.45;101162.12;1818206;76;20227;-71
2021/08/20 07:38:11;;;;;;;;;;;;;;;27.33;40.12;101156.91;1839294;76;20223;-70
2021/08/20 07:40:43;;;;;;;;;;;;;;;27.27;40.73;101163.48;1840777;76;20323;-69
2021/08/20 07:43:16;;;;;;;;;;;;;;;27.32;41.61;101155.25;1844201;76;21059;-70
2021/08/20 07:45:48;;;;;;;;;;;;;;;27.45;41.57;101155.67;1837802;76;20241;-74
2021/08/20 07:48:20;;;;;;;;;;;;;;;27.60;40.81;101159.20;1834160;76;20297;-72
2021/08/20 07:50:52;;;;;;;;;;;;;;;27.74;41.13;101157.33;1837723;76;20249;-71
2021/08/20 07:53:25;;;;;;;;;;;;;;;27.84;40.30;101163.40;1841629;76;20166;-74
2021/08/20 07:55:59;;;;;;;;;;;;;;;27.89;40.15;101160.25;1835438;76;20273;-72
2021/08/20 07:58:32;;;;;;;;;;;;;;;27.91;39.95;101157.88;1877442;76;20255;-73
2021/08/20 08:01:04;;;;;;;;;;;;;;;27.96;39.87;101161.91;1878428;76;20279;-70
2021/08/20 08:03:38;;;;;;;;;;;;;;;27.94;39.47;101167.13;1850809;77;20250;-71
2021/08/20 08:06:13;;;;;;;;;;;;;;;27.91;39.72;101166.45;1866458;75;20182;-71
2021/08/20 08:08:45;;;;;;;;;;;;;;;27.86;39.24;101160.16;1848740;77;20234;-74
2021/08/20 08:11:17;;;;;;;;;;;;;;;27.80;39.63;101158.75;1847789;77;20183;-71
2021/08/20 08:13:50;;;;;;;;;;;;;;;27.79;39.35;101147.95;1846302;77;20250;-70
2021/08/20 08:16:23;;;;;;;;;;;;;;;27.80;40.00;101161.03;1848342;77;20209;-72
2021/08/20 08:18:54;;;;;;;;;;;;;;;27.78;40.31;101159.15;1849884;75;20250;-71
2021/08/20 08:21:26;;;;;;;;;;;;;;;27.78;40.35;101150.58;1845555;77;20376;-74
2021/08/20 08:23:59;;;;;;;;;;;;;;;27.72;38.47;101154.86;1841973;78;20234;-72
2021/08/20 08:26:33;;;;;;;;;;;;;;;27.68;37.44;101162.48;1841764;78;20211;-73
2021/08/20 08:29:05;;;;;;;;;;;;;;;27.71;38.21;101148.08;1841770;78;20183;-74
2021/08/20 08:31:37;;;;;;;;;;;;;;;27.74;37.62;101149.61;1841936;78;20785;-73
2021/08/20 08:34:08;;;;;;;;;;;;;;;27.76;36.69;101150.06;1841936;78;20179;-73
2021/08/20 08:36:40;;;;;;;;;;;;;;;27.75;37.02;101148.41;1841857;78;20246;-72
2021/08/20 08:39:12;;;;;;;;;;;;;;;27.68;37.69;101143.92;1888714;75;20244;-74
2021/08/20 08:41:43;;;;;;;;;;;;;;;27.60;38.83;101144.92;1891758;75;20597;-73
2021/08/20 08:44:15;;;;;;;;;;;;;;;27.52;39.35;101150.16;1888024;76;20247;-74
2021/08/20 08:46:46;;;;;;;;;;;;;;;27.44;38.68;101136.89;1872440;77;20614;-74
2021/08/20 08:49:22;;;;;;;;;;;;;;;27.42;38.28;101137.02;1797404;78;20599;-73
2021/08/20 08:51:54;;;;;;;;;;;;;;;27.40;38.65;101143.08;1888024;76;20215;-72
2021/08/20 08:54:25;;;;;;;;;;;;;;;27.39;37.69;101139.99;1872496;76;20237;-73
2021/08/20 08:56:57;;;;;;;;;;;;;;;27.41;37.05;101142.49;1885403;76;20184;-71
2021/08/20 08:59:30;;;;;;;;;;;;;;;27.39;38.23;101139.99;1885418;76;20184;-73
2021/08/20 09:02:17;;;;;;;;;;;;;;;27.43;38.31;101140.94;1885446;76;20176;-72
2021/08/20 09:05:00;;;;;;;;;;;;;;;27.48;37.96;101145.55;1881788;76;20600;-71
2021/08/20 09:07:35;;;;;;;;;;;;;;;27.54;37.45;101143.52;1885447;76;20181;-72
2021/08/20 09:10:24;;;;;;;;;;;;;;;27.59;37.39;101150.38;1885297;76;20244;-72
2021/08/20 09:12:57;;;;;;;;;;;;;;;27.64;36.38;101150.12;1858975;74;20674;-73
2021/08/20 09:15:31;;;;;;;;;;;;;;;27.64;37.22;101143.59;1843894;78;20543;-72
2021/08/20 09:18:04;;;;;;;;;;;;;;;27.67;37.93;101150.83;1844066;78;20547;-75
2021/08/20 09:20:36;;;;;;;;;;;;;;;27.80;37.15;101151.62;1843961;78;20243;-72
2021/08/20 09:23:23;;;;;;;;;;;;;;;27.86;37.39;101151.59;1843776;78;20247;-74
2021/08/20 09:25:55;;;;;;;;;;;;;;;27.84;35.42;101159.70;1816778;77;20288;-72
2021/08/20 09:28:30;;;;;;;;;;;;;;;27.67;36.28;101158.55;1840789;78;20271;-74
2021/08/20 09:31:09;;;;;;;;;;;;;;;27.55;36.67;101165.74;1829089;78;20174;-71
2021/08/20 09:33:47;;;;;;;;;;;;;;;27.44;36.93;101171.72;1833957;78;20251;-72
2021/08/20 09:36:21;;;;;;;;;;;;;;;27.28;36.91;101170.23;1826221;78;20227;-71
2021/08/20 09:38:56;;;;;;;;;;;;;;;27.12;37.53;101176.20;1831274;77;20605;-72
2021/08/20 09:41:33;;;;;;;;;;;;;;;26.98;37.74;101181.66;1832671;78;20762;-73
2021/08/20 09:46:42;;;;;;;;;;;;;;;26.85;38.55;101182.63;1798027;79;20323;-71
2021/08/20 09:49:17;;;;;;;;;;;;;;;26.81;38.56;101185.38;1798611;80;20186;-71
2021/08/20 09:51:50;;;;;;;;;;;;;;;26.78;38.48;101186.68;1798763;80;20261;-71
2021/08/20 09:54:23;;;;;;;;;;;;;;;26.69;38.88;101185.98;1798739;80;20258;-72
2021/08/20 09:56:57;;;;;;;;;;;;;;;26.61;38.77;101184.06;1798125;79;21136;-72
2021/08/20 09:59:30;;;;;;;;;;;;;;;26.56;38.82;101191.41;1798744;80;20257;-72
2021/08/20 10:02:06;;;;;;;;;;;;;;;26.51;39.08;101189.61;1815954;75;20252;-74
2021/08/20 10:04:40;;;;;;;;;;;;;;;26.45;38.50;101191.64;1841453;78;20609;-75
2021/08/20 10:07:11;;;;;;;;;;;;;;;26.41;38.83;101194.95;1843730;78;20249;-74
2021/08/20 10:09:43;;;;;;;;;;;;;;;26.38;38.88;101207.03;1843711;78;20324;-71
2021/08/20 10:12:20;;;;;;;;;;;;;;;26.33;39.14;101201.59;1825097;76;20296;-76
2021/08/20 10:14:52;;;;;;;;;;;;;;;26.27;39.18;101206.66;1798733;80;20268;-77
2021/08/20 10:17:26;;;;;;;;;;;;;;;26.23;39.73;101199.19;1798735;80;20252;-76
2021/08/20 10:19:59;;;;;;;;;;;;;;;26.19;39.90;101196.80;1798742;78;20545;-76
2021/08/20 10:22:31;;;;;;;;;;;;;;;26.19;40.11;101201.06;1798809;80;20260;-73
2021/08/20 10:25:04;;;;;;;;;;;;;;;26.13;40.58;101195.35;1752695;80;20187;-72
2021/08/20 10:27:37;;;;;;;;;;;;;;;26.11;40.68;101203.42;1765531;80;20610;-75
2021/08/20 10:30:09;;;;;;;;;;;;;;;26.11;41.19;101200.00;1818765;78;20582;-74
2021/08/20 10:32:45;;;;;;;;;;;;;;;26.12;41.00;101192.27;1802748;78;20285;-72
2021/08/20 10:35:18;;;;;;;;;;;;;;;26.14;41.38;101192.77;1826567;77;20243;-74
2021/08/20 10:37:50;;;;;;;;;;;;;;;26.15;41.24;101190.97;1844258;77;20584;-73
2021/08/20 10:40:23;;;;;;;;;;;;;;;26.16;40.91;101191.20;1843776;77;20351;-71
2021/08/20 10:42:56;;;;;;;;;;;;;;;26.13;41.43;101183.38;1836257;76;20297;-75
2021/08/20 10:45:31;;;;;;;;;;;;;;;26.14;40.95;101185.04;1814866;78;20573;-76
2021/08/20 10:48:15;;;;;;;;;;;;;;;26.16;40.75;101179.00;1789790;78;20530;-70
2021/08/20 10:50:48;;;;;;;;;;;;;;;26.18;41.21;101173.77;1752425;81;20248;-75
2021/08/20 10:53:22;;;;;;;;;;;;;;;26.22;41.21;101171.89;1805226;79;20216;-76
2021/08/20 10:55:53;;;;;;;;;;;;;;;26.27;41.29;101155.39;1779078;79;20320;-75
2021/08/20 10:58:28;;;;;;;;;;;;;;;26.36;40.49;101165.25;1780185;80;20177;-76
2021/08/20 11:00:59;;;;;;;;;;;;;;;26.41;40.55;101167.88;1788300;80;20250;-73
2021/08/20 11:03:40;;;;;;;;;;;;;;;26.44;40.31;101166.58;1798451;79;20253;-69
2021/08/20 11:06:15;;;;;;;;;;;;;;;26.47;40.57;101165.87;1808317;79;20542;-69
2021/08/20 11:08:47;;;;;;;;;;;;;;;26.54;39.73;101168.16;1805351;79;20285;-69
2021/08/20 11:11:42;;;;;;;;;;;;;;;26.59;39.55;101169.34;1810670;79;20606;-74
2021/08/20 11:14:25;;;;;;;;;;;;;;;26.63;39.59;101166.03;1808723;79;20249;-71
2021/08/20 11:16:57;;;;;;;;;;;;;;;26.64;39.01;101156.29;1809383;79;20228;-72
2021/08/20 11:19:46;;;;;;;;;;;;;;;26.63;39.13;101156.87;1807598;79;20348;-73
2021/08/20 11:22:21;;;;;;;;;;;;;;;26.63;39.59;101157.48;1810004;79;20252;-70
2021/08/20 11:25:15;;;;;;;;;;;;;;;26.64;39.47;101159.95;1810416;79;20248;-71
2021/08/20 11:27:57;;;;;;;;;;;;;;;26.68;38.86;101164.34;1810943;77;20232;-74
2021/08/20 11:30:29;;;;;;;;;;;;;;;26.68;38.63;101159.48;1809073;79;20181;-70
2021/08/20 11:33:15;;;;;;;;;;;;;;;26.68;39.17;101156.64;1810744;79;20237;-71
2021/08/20 11:35:51;;;;;;;;;;;;;;;26.68;38.96;101154.37;1810907;77;20252;-71
2021/08/20 11:38:33;;;;;;;;;;;;;;;26.67;38.71;101151.28;1806643;79;20309;-71
2021/08/20 11:41:20;;;;;;;;;;;;;;;26.67;39.64;101149.86;1807303;79;20193;-71
2021/08/20 11:43:50;;;;;;;;;;;;;;;26.70;38.84;101149.16;1806742;79;20293;-72
2021/08/20 11:46:23;;;;;;;;;;;;;;;26.71;38.93;101155.91;1810646;79;20209;-71
2021/08/20 11:49:00;;;;;;;;;;;;;;;26.72;39.49;101147.62;1807424;79;20185;-72
2021/08/20 11:51:33;;;;;;;;;;;;;;;26.74;39.44;101161.48;1808348;79;20519;-72
2021/08/20 11:54:07;;;;;;;;;;;;;;;26.75;39.07;101149.73;1806994;79;20256;-70
2021/08/20 11:56:50;;;;;;;;;;;;;;;26.76;39.28;101154.86;1810984;79;20614;-74
2021/08/20 11:59:23;;;;;;;;;;;;;;;26.77;39.60;101149.39;1810641;79;20245;-73
2021/08/20 12:01:56;;;;;;;;;;;;;;;26.83;39.64;101142.25;1810910;79;20221;-70
2021/08/20 12:04:30;;;;;;;;;;;;;;;26.84;38.90;101147.61;1805918;78;20236;-71
2021/08/20 12:07:01;;;;;;;;;;;;;;;26.82;39.16;101148.53;1810815;79;20546;-72
2021/08/20 12:09:35;;;;;;;;;;;;;;;26.81;39.17;101146.88;1810895;79;20565;-72
2021/08/20 12:12:12;;;;;;;;;;;;;;;26.83;39.27;101145.11;1807292;79;20284;-74
2021/08/20 12:14:46;;;;;;;;;;;;;;;26.85;39.33;101141.30;1806029;79;20228;-71
2021/08/20 12:17:23;;;;;;;;;;;;;;;26.85;39.77;101142.72;1810983;79;20185;-72
2021/08/20 12:19:56;;;;;;;;;;;;;;;26.85;40.66;101149.84;1804643;78;20249;-71
2021/08/20 12:22:39;;;;;;;;;;;;;;;26.83;40.08;101134.52;1807381;79;20208;-69
2021/08/20 12:25:21;;;;;;;;;;;;;;;26.79;40.51;101130.73;1788532;79;20270;-71
2021/08/20 12:27:53;;;;;;;;;;;;;;;26.73;40.43;101137.03;1796814;79;20174;-69
2021/08/20 12:30:28;;;;;;;;;;;;;;;26.68;40.95;101140.11;1791270;79;20227;-73
2021/08/20 12:33:00;;;;;;;;;;;;;;;26.65;41.12;101137.38;1711034;83;20362;-70
2021/08/20 12:35:32;;;;;;;;;;;;;;;26.64;41.32;101144.27;1709492;83;20340;-73
2021/08/20 12:38:06;;;;;;;;;;;;;;;26.67;41.15;101152.13;1711027;83;20538;-72
2021/08/20 12:40:40;;;;;;;;;;;;;;;26.70;41.09;101137.76;1690694;83;20306;-73
2021/08/20 12:43:30;;;;;;;;;;;;;;;26.71;40.65;101132.29;1714506;83;20227;-70
2021/08/20 12:46:13;;;;;;;;;;;;;;;26.70;41.23;101137.14;1715142;84;20192;-73
2021/08/20 12:48:42;;;;;;;;;;;;;;;26.71;41.30;101139.41;1715093;84;20223;-72
2021/08/20 12:51:14;;;;;;;;;;;;;;;26.70;40.34;101141.42;1759346;79;20542;-78
2021/08/20 12:53:46;;;;;;;;;;;;;;;26.67;40.77;101146.42;1816120;79;20590;-74
2021/08/20 12:56:18;;;;;;;;;;;;;;;26.64;40.31;101152.83;1814317;79;20542;-74
2021/08/20 12:58:50;;;;;;;;;;;;;;;26.58;40.79;101144.89;1801873;79;20201;-78
2021/08/20 13:01:24;;;;;;;;;;;;;;;26.49;41.33;101142.70;1806401;79;20252;-70
2021/08/20 13:03:58;;;;;;;;;;;;;;;26.42;41.69;101148.16;1807244;79;20193;-81
2021/08/20 13:06:30;;;;;;;;;;;;;;;26.37;41.30;101154.09;1807141;79;20330;-75
2021/08/20 13:09:03;;;;;;;;;;;;;;;26.35;40.29;101161.59;1814461;78;20300;-72
2021/08/20 13:11:38;;;;;;;;;;;;;;;26.32;40.27;101155.16;1810931;79;20220;-71
2021/08/20 13:14:09;;;;;;;;;;;;;;;26.31;40.78;101162.63;1811716;79;20579;-74